Drummond Island, MI

9:00 PM EST on December 04, 2016 (GMT -0500)
Potagannissing Bay Front | | Change Station
Active Advisory: Winter Weather Advisory Active Notice: Local Storm Report

Elev 587 ft 46.06 °N, 83.67 °W | Updated 25 seconds ago

Snow
Snow
32.1 °F
Feels Like 32 °F
N
0.0
Wind Variable Wind from East
Gusts 1.0 mph

Today
High -- | Low -- °F
--% Chance of Precip.
Yesterday
High -- | Low -- °F
Precip. -- in
Pressure 29.87 in
Visibility 1.0 miles
Clouds Overcast 200 ft
Windchill 32 °F
Dew Point 32 °F
Humidity 98%
Rainfall 0.02 in
Snow Depth Not available.
8:00 AM 4:50 PM
Waxing Crescent, 27% visible
METAR KDRM 050155Z AUTO 00000KT 1SM SN OVC002 00/00 A2987 RMK AO2 P0010 T00000000
Pressure 29.87 in
Visibility 1.0 miles
Clouds Overcast 200 ft
Windchill 32 °F
Dew Point 32 °F
Humidity 98%
Rainfall 0.02 in
Snow Depth Not available.
8:00 AM 4:50 PM
Waxing Crescent, 27% visible
METAR KDRM 050155Z AUTO 00000KT 1SM SN OVC002 00/00 A2987 RMK AO2 P0010 T00000000

10-Day Weather Forecast

Almanac

Astronomy

Dec. 04, 2016 Rise Set
Actual Time
Civil Twilight
Nautical Twilight
Astronomical Twilight
Moon
Length of Visible Light
Length of Day
Tomorrow will be .
, % of the Moon is Illuminated

Today's Extremes

State Highs State Lows

Community

WunderPhotos

Upload Photos

1,955,744 photos uploaded!

WunderBlog® & News

Nearby

Air Quality

  Air Quality AQ Index Pollutant
Not available.

Snow Depth

Station Depth Elevation

Earthquake Activity

City Distance Mag. Time & Date
Minimum magnitude displayed is 2.5.

Coastal Water Temperatures

Place Temperature

Stations

Nearby Weather Stations

Station Location Temp. Windchill Dew Point Humidity Wind Precip. Elev Updated Type
                   

Watches & Warnings

Winter Weather Advisory
Issued: 4:05 PM EST Dec. 4, 2016 – National Weather Service

... Winter Weather Advisory remains in effect until 4 am EST
Monday...

A Winter Weather Advisory remains in effect until 4 am EST
Monday.

* Expect snow to continue... diminishing after 4 am Monday.

* The heaviest snowfall rates will occur between 7 PM this
evening and 1 am Monday.

* Total snow accumulations of 3 to 5 inches are expected. Locally
higher.

* Reduced visibilities and slippery Road conditions.

Precautionary/preparedness actions...

A Winter Weather Advisory for snow means periods of snow will
cause primarily travel difficulties. Be prepared for snow covered
roads and limited visibilities... and use caution while driving.
For the latest Road conditions... go to the mdot website at
Michigan.Gov.


Smd